Time;durP1;ratioP1;P1;durP2;ratioP2;P2;SDS_P1;SDS_P2;PMS_P1;PMS_P2;Temp;Humidity;BMP_temperature;BMP_pressure;BME280_temperature;BME280_humidity;BME280_pressure;Samples;Min_cycle;Max_cycle;Signal;HPM_P1;HPM_P2
2023/08/21 00:00:13;;;;;;;2.13;2.13;;;;;;;21.94;65.87;97148.41;5045464;28;20068;-66
2023/08/21 00:02:40;;;;;;;2.22;2.22;;;;;;;21.97;65.83;97153.16;5045269;28;20060;-65
2023/08/21 00:05:07;;;;;;;2.28;2.28;;;;;;;21.80;65.85;97123.41;5044958;28;20056;-66
2023/08/21 00:07:34;;;;;;;2.67;2.58;;;;;;;21.70;65.87;97113.19;5045237;28;20401;-67
2023/08/21 00:10:00;;;;;;;2.35;2.33;;;;;;;21.94;65.80;97148.41;5044551;28;20519;-66
2023/08/21 00:12:27;;;;;;;2.47;2.38;;;;;;;21.92;65.96;97153.72;5044617;28;20115;-66
2023/08/21 00:14:54;;;;;;;2.47;2.38;;;;;;;21.54;66.55;97110.34;5035633;28;20500;-66
2023/08/21 00:17:20;;;;;;;2.50;2.40;;;;;;;21.84;66.27;97157.97;5025244;28;20053;-67
2023/08/21 00:19:47;;;;;;;2.30;2.30;;;;;;;21.34;66.25;97087.09;5024181;28;20121;-67
2023/08/21 00:22:14;;;;;;;2.30;2.30;;;;;;;21.77;65.94;97141.22;5022126;28;20049;-66
2023/08/21 00:24:40;;;;;;;2.30;2.30;;;;;;;21.78;65.70;97142.78;5024221;28;20508;-66
2023/08/21 00:27:07;;;;;;;2.50;2.40;;;;;;;21.79;65.77;97141.56;5024524;28;20042;-66
2023/08/21 00:29:34;;;;;;;2.75;2.65;;;;;;;21.78;66.02;97154.06;5024705;28;20063;-66
2023/08/21 00:32:00;;;;;;;2.35;2.28;;;;;;;21.41;65.91;97098.19;5035344;28;20060;-66
2023/08/21 00:34:27;;;;;;;2.50;2.40;;;;;;;21.77;65.96;97146.84;5044214;28;20431;-67
2023/08/21 00:36:54;;;;;;;2.58;2.47;;;;;;;21.34;66.16;97095.53;5043939;28;20450;-67
2023/08/21 00:39:20;;;;;;;2.33;2.30;;;;;;;21.19;66.44;97082.22;5042485;28;20052;-66
2023/08/21 00:41:47;;;;;;;2.67;2.58;;;;;;;21.72;66.26;97155.81;5043647;28;20049;-66
2023/08/21 00:44:14;;;;;;;2.38;2.35;;;;;;;21.57;66.59;97148.16;5034773;28;20055;-66
2023/08/21 00:46:40;;;;;;;2.90;2.80;;;;;;;21.56;66.87;97152.97;5041813;28;20387;-67
2023/08/21 00:49:08;;;;;;;2.75;2.65;;;;;;;21.48;67.16;97151.56;5043142;28;20048;-67
2023/08/21 00:51:35;;;;;;;2.30;2.30;;;;;;;21.44;67.46;97156.50;5041490;28;20131;-67
2023/08/21 00:54:01;;;;;;;2.50;2.40;;;;;;;21.42;67.02;97136.41;5042049;28;20048;-67
2023/08/21 00:56:28;;;;;;;2.20;2.20;;;;;;;21.50;67.17;97154.75;5043449;28;20048;-66
2023/08/21 00:58:55;;;;;;;2.22;2.22;;;;;;;21.45;67.36;97141.16;5041671;28;20048;-66
2023/08/21 01:01:27;;;;;;;2.10;2.10;;;;;;;21.40;67.45;97121.97;5042887;28;20053;-65
2023/08/21 01:03:54;;;;;;;2.50;2.40;;;;;;;21.27;67.40;97112.63;5043172;28;20057;-66
2023/08/21 01:06:21;;;;;;;2.72;2.63;;;;;;;21.39;67.42;97126.03;5041581;28;20435;-66
2023/08/21 01:08:57;;;;;;;2.13;2.13;;;;;;;21.43;67.02;97154.13;5042699;28;20054;-66
2023/08/21 01:11:27;;;;;;;2.53;2.42;;;;;;;21.24;68.02;97141.69;5042596;28;20140;-66
2023/08/21 01:14:08;;;;;;;2.20;2.20;;;;;;;21.26;68.10;97139.22;5042578;28;20049;-67
2023/08/21 01:16:37;;;;;;;2.60;2.50;;;;;;;21.30;67.74;97139.94;5041002;28;20053;-66
2023/08/21 01:19:10;;;;;;;2.20;2.20;;;;;;;21.43;66.87;97140.84;5042801;28;20136;-65
2023/08/21 01:21:36;;;;;;;2.00;2.00;;;;;;;21.33;67.13;97147.50;5042946;28;20060;-66
2023/08/21 01:24:03;;;;;;;2.13;2.13;;;;;;;20.43;67.08;97013.16;5042715;28;20052;-66
2023/08/21 01:26:30;;;;;;;2.35;2.30;;;;;;;21.32;67.11;97143.13;5042504;28;20060;-66
2023/08/21 01:28:56;;;;;;;2.67;2.58;;;;;;;21.33;67.00;97138.25;5042406;28;20443;-66
2023/08/21 01:31:32;;;;;;;2.30;2.30;;;;;;;21.01;67.08;97088.28;5042589;28;20056;-66
2023/08/21 01:34:04;;;;;;;2.20;2.20;;;;;;;21.36;66.82;97138.16;5040852;28;20056;-67
2023/08/21 01:36:31;;;;;;;2.20;2.20;;;;;;;21.40;66.33;97144.53;5042422;28;20048;-67
2023/08/21 01:38:58;;;;;;;2.20;2.20;;;;;;;21.46;66.54;97151.22;5042572;28;20074;-65
2023/08/21 01:41:25;;;;;;;2.08;2.08;;;;;;;21.45;66.41;97152.44;5042751;28;20455;-66
2023/08/21 01:43:52;;;;;;;2.20;2.20;;;;;;;21.37;66.65;97151.03;5043070;28;20045;-67
2023/08/21 01:46:19;;;;;;;2.28;2.28;;;;;;;21.25;67.26;97146.09;5041469;28;20075;-66
2023/08/21 01:48:45;;;;;;;2.17;2.17;;;;;;;21.23;67.38;97148.53;5041291;28;20503;-66
2023/08/21 01:51:12;;;;;;;2.22;2.22;;;;;;;21.26;67.23;97150.47;5042301;28;20049;-66
2023/08/21 01:53:39;;;;;;;2.42;2.38;;;;;;;21.25;67.12;97148.91;5042070;28;20052;-66
2023/08/21 01:56:05;;;;;;;2.38;2.35;;;;;;;21.21;67.51;97142.56;5040125;28;20055;-67
2023/08/21 01:58:32;;;;;;;2.50;2.40;;;;;;;21.04;68.16;97143.75;5041837;28;20055;-66
2023/08/21 02:00:59;;;;;;;2.47;2.38;;;;;;;20.50;68.13;97070.09;5041774;28;20156;-66
2023/08/21 02:03:26;;;;;;;2.58;2.47;;;;;;;20.91;68.41;97137.19;5042056;28;20056;-66
2023/08/21 02:05:58;;;;;;;2.15;2.15;;;;;;;20.30;68.69;97043.19;5040777;28;20053;-66
2023/08/21 02:08:35;;;;;;;2.00;2.00;;;;;;;20.90;68.78;97139.19;5041660;28;20120;-66
2023/08/21 02:11:02;;;;;;;2.08;2.08;;;;;;;20.83;68.96;97132.94;5041567;28;20060;-65
2023/08/21 02:13:28;;;;;;;2.10;2.10;;;;;;;20.96;68.46;97147.94;5040782;28;20053;-65
2023/08/21 02:15:55;;;;;;;1.92;1.92;;;;;;;20.95;68.09;97141.50;5040154;28;20060;-66
2023/08/21 02:18:22;;;;;;;2.10;2.10;;;;;;;20.63;68.36;97101.19;5042102;28;20851;-66
2023/08/21 02:20:49;;;;;;;1.92;1.92;;;;;;;20.84;68.54;97134.50;5041440;28;20460;-66
2023/08/21 02:23:16;;;;;;;2.20;2.20;;;;;;;20.88;68.32;97140.88;5041899;28;20045;-66
2023/08/21 02:25:43;;;;;;;1.90;1.90;;;;;;;20.83;68.48;97141.38;5041483;28;20057;-66
2023/08/21 02:28:09;;;;;;;1.95;1.95;;;;;;;20.84;68.54;97145.78;5039543;28;20044;-66
2023/08/21 02:30:40;;;;;;;1.98;1.98;;;;;;;20.50;68.28;97097.47;5041047;28;20518;-66
2023/08/21 02:33:06;;;;;;;1.88;1.88;;;;;;;20.81;68.13;97152.28;5041579;28;20053;-66
2023/08/21 02:35:33;;;;;;;2.38;2.35;;;;;;;20.53;68.83;97119.09;5041253;28;20106;-66
2023/08/21 02:38:00;;;;;;;2.10;2.10;;;;;;;20.67;68.87;97146.94;5039781;28;20053;-66
2023/08/21 02:40:27;;;;;;;2.30;2.30;;;;;;;20.29;68.61;97072.56;5041244;28;20716;-66
2023/08/21 02:42:53;;;;;;;2.15;2.15;;;;;;;20.71;68.59;97142.03;5040158;28;20048;-67
2023/08/21 02:45:20;;;;;;;2.00;2.00;;;;;;;20.07;68.44;97068.56;5040676;28;20049;-66
2023/08/21 02:47:47;;;;;;;2.08;2.08;;;;;;;20.65;68.88;97126.88;5039806;28;20182;-66
2023/08/21 02:50:13;;;;;;;1.95;1.95;;;;;;;20.45;68.48;97103.59;5041557;28;20488;-66
2023/08/21 02:52:40;;;;;;;2.00;2.00;;;;;;;20.78;67.72;97141.88;5041710;28;20132;-66
2023/08/21 02:55:08;;;;;;;2.10;2.10;;;;;;;20.35;68.72;97090.53;5039890;28;20060;-66
2023/08/21 02:57:35;;;;;;;1.90;1.90;;;;;;;20.78;68.09;97141.88;5041472;28;20087;-66
2023/08/21 03:00:02;;;;;;;2.10;2.10;;;;;;;20.24;68.51;97059.00;5041405;28;20056;-66
2023/08/21 03:02:29;;;;;;;1.90;1.90;;;;;;;20.84;68.14;97145.78;5041288;28;20056;-66
2023/08/21 03:04:56;;;;;;;1.92;1.92;;;;;;;20.65;67.72;97110.00;5041444;28;20048;-66
2023/08/21 03:07:23;;;;;;;1.95;1.95;;;;;;;20.89;67.66;97143.25;5041115;28;20511;-66
2023/08/21 03:09:50;;;;;;;2.10;2.10;;;;;;;20.84;67.80;97145.78;5040964;28;20053;-66
2023/08/21 03:12:17;;;;;;;2.10;2.10;;;;;;;20.87;67.68;97144.91;5027929;28;20582;-67
2023/08/21 03:14:43;;;;;;;1.98;1.98;;;;;;;20.61;68.38;97148.69;5021465;28;20045;-65
2023/08/21 03:17:10;;;;;;;2.28;2.28;;;;;;;20.49;68.35;97129.63;5019318;28;20594;-66
2023/08/21 03:19:37;;;;;;;2.28;2.28;;;;;;;20.61;68.17;97145.88;5020839;28;20045;-66
2023/08/21 03:22:03;;;;;;;2.05;2.05;;;;;;;20.43;68.31;97125.72;5020761;28;20433;-66
2023/08/21 03:24:30;;;;;;;2.20;2.20;;;;;;;20.44;69.17;97145.00;5020134;28;20516;-66
2023/08/21 03:26:57;;;;;;;2.20;2.20;;;;;;;20.40;69.18;97146.31;5019044;28;20050;-66
2023/08/21 03:29:23;;;;;;;1.98;1.98;;;;;;;20.39;69.19;97155.97;5020710;28;20512;-66
2023/08/21 03:31:52;;;;;;;1.90;1.90;;;;;;;20.29;68.35;97117.56;5027838;28;20075;-66
2023/08/21 03:34:19;;;;;;;2.00;2.00;;;;;;;20.49;68.64;97157.78;5040775;28;20208;-66
2023/08/21 03:36:46;;;;;;;1.92;1.92;;;;;;;20.04;68.45;97066.63;5040016;28;20057;-66
2023/08/21 03:39:12;;;;;;;1.77;1.77;;;;;;;20.14;68.61;97086.13;5040815;28;20537;-66
2023/08/21 03:41:39;;;;;;;1.98;1.98;;;;;;;20.51;68.91;97149.69;5039880;28;20593;-67
2023/08/21 03:44:06;;;;;;;2.00;2.00;;;;;;;20.59;68.53;97151.13;5041348;28;20087;-66
2023/08/21 03:46:32;;;;;;;2.25;2.25;;;;;;;20.45;69.13;97146.59;5040992;28;20049;-67
2023/08/21 03:48:59;;;;;;;1.90;1.90;;;;;;;20.27;69.91;97163.03;5040727;28;20760;-66
2023/08/21 03:51:26;;;;;;;2.00;2.00;;;;;;;20.43;69.74;97153.88;5040402;28;20500;-66
2023/08/21 03:53:53;;;;;;;2.10;2.10;;;;;;;20.41;70.01;97156.31;5039046;28;20424;-66
2023/08/21 03:56:19;;;;;;;2.10;2.10;;;;;;;20.43;69.72;97153.88;5040116;28;20565;-66
2023/08/21 03:58:48;;;;;;;2.03;2.03;;;;;;;20.60;69.45;97159.16;5038761;28;20056;-66
2023/08/21 04:01:15;;;;;;;2.20;2.20;;;;;;;20.71;69.23;97161.75;5039999;28;20053;-66
2023/08/21 04:03:42;;;;;;;2.05;2.05;;;;;;;20.78;68.59;97164.41;5038422;28;20582;-66
2023/08/21 04:06:09;;;;;;;1.85;1.85;;;;;;;20.84;68.44;97165.50;5039171;28;20416;-66
2023/08/21 04:08:36;;;;;;;2.15;2.15;;;;;;;20.68;67.89;97124.00;5038606;28;20052;-67
2023/08/21 04:11:02;;;;;;;1.90;1.90;;;;;;;20.75;67.61;97125.88;5040312;28;20386;-64
2023/08/21 04:13:29;;;;;;;2.15;2.15;;;;;;;21.10;67.51;97170.19;5040369;28;20056;-67
2023/08/21 04:15:56;;;;;;;2.30;2.30;;;;;;;21.00;67.78;97165.56;5039095;28;20440;-65
2023/08/21 04:18:24;;;;;;;1.98;1.98;;;;;;;20.88;68.54;97169.03;5040817;28;20136;-67
2023/08/21 04:21:07;;;;;;;2.25;2.25;;;;;;;20.96;68.30;97168.47;5040258;28;20447;-66
2023/08/21 04:23:33;;;;;;;2.00;2.00;;;;;;;20.89;68.24;97153.72;5041140;28;20586;-65
2023/08/21 04:26:04;;;;;;;1.92;1.92;;;;;;;21.17;68.04;97170.03;5039753;28;20057;-65
2023/08/21 04:28:31;;;;;;;2.28;2.28;;;;;;;21.13;68.06;97169.31;5041478;28;20452;-65
2023/08/21 04:30:58;;;;;;;2.00;2.00;;;;;;;21.23;67.52;97173.91;5040993;28;20297;-65
2023/08/21 04:33:29;;;;;;;2.10;2.10;;;;;;;21.33;67.12;97167.25;5040021;28;20134;-65
2023/08/21 04:35:56;;;;;;;2.03;2.03;;;;;;;21.32;67.15;97168.47;5041473;28;20067;-66
2023/08/21 04:38:23;;;;;;;2.30;2.30;;;;;;;21.20;67.31;97146.59;5043971;28;20045;-65
2023/08/21 04:40:50;;;;;;;1.95;1.95;;;;;;;21.54;66.81;97171.56;5044363;28;20515;-67
2023/08/21 04:43:17;;;;;;;2.20;2.20;;;;;;;21.69;66.70;97172.81;5043700;28;20060;-65
2023/08/21 04:45:52;;;;;;;2.20;2.20;;;;;;;21.76;66.49;97183.97;5044106;28;20100;-65
2023/08/21 04:48:20;;;;;;;2.05;2.05;;;;;;;21.91;66.47;97177.50;5045335;28;20114;-66
2023/08/21 04:50:47;;;;;;;2.45;2.35;;;;;;;22.06;65.79;97170.28;5044624;28;20072;-65
2023/08/21 04:53:13;;;;;;;2.00;2.00;;;;;;;22.06;65.54;97158.19;5044119;28;20400;-65
2023/08/21 04:55:42;;;;;;;2.55;2.45;;;;;;;22.05;65.19;97123.53;5043562;28;20071;-65
2023/08/21 04:58:09;;;;;;;2.20;2.20;;;;;;;22.66;63.80;97168.66;5042983;28;20084;-65
2023/08/21 05:00:36;;;;;;;2.70;2.60;;;;;;;22.30;64.18;97134.94;5042077;28;20060;-64
2023/08/21 05:03:03;;;;;;;2.70;2.60;;;;;;;22.66;64.03;97176.34;5042221;28;20477;-65
2023/08/21 05:05:30;;;;;;;2.30;2.30;;;;;;;22.56;63.37;97118.16;5042154;28;20148;-65
2023/08/21 05:07:57;;;;;;;2.53;2.42;;;;;;;23.12;62.96;97175.78;5041791;28;20057;-68
2023/08/21 05:10:23;;;;;;;2.85;2.75;;;;;;;23.33;62.30;97178.00;5041647;28;20053;-65
2023/08/21 05:12:50;;;;;;;2.50;2.40;;;;;;;23.54;61.59;97166.81;5041419;28;20068;-66
2023/08/21 05:15:17;;;;;;;2.90;2.80;;;;;;;23.64;61.04;97170.53;5042316;28;20508;-66
2023/08/21 05:17:43;;;;;;;2.60;2.50;;;;;;;23.89;60.70;97164.84;5042171;28;20064;-65
2023/08/21 05:20:13;;;;;;;2.80;2.70;;;;;;;24.07;60.77;97170.75;5042589;28;20057;-66
2023/08/21 05:22:40;;;;;;;2.72;2.63;;;;;;;24.29;60.33;97165.94;5041049;28;20057;-67
2023/08/21 05:25:08;;;;;;;2.53;2.42;;;;;;;24.21;60.10;97141.94;5042867;28;20057;-68
2023/08/21 05:27:35;;;;;;;2.80;2.70;;;;;;;24.58;59.67;97169.31;5040888;28;20739;-62
2023/08/21 05:30:04;;;;;;;3.03;2.92;;;;;;;24.81;59.27;97168.91;5042368;28;20479;-66
2023/08/21 05:32:30;;;;;;;3.13;3.03;;;;;;;25.07;58.88;97170.34;5041099;28;20064;-66
2023/08/21 05:34:57;;;;;;;2.85;2.75;;;;;;;25.22;57.79;97160.03;5040225;28;20049;-66
2023/08/21 05:37:24;;;;;;;3.10;3.00;;;;;;;25.46;57.44;97168.06;5041623;28;20527;-66
2023/08/21 05:39:50;;;;;;;3.80;3.70;;;;;;;25.78;56.54;97174.03;5041766;28;20060;-66
2023/08/21 05:42:17;;;;;;;3.15;3.05;;;;;;;26.08;55.91;97167.53;5040207;28;20060;-68
2023/08/21 05:44:44;;;;;;;3.40;3.30;;;;;;;26.29;55.78;97162.97;5040355;28;20060;-66
2023/08/21 05:47:11;;;;;;;3.55;3.45;;;;;;;26.13;55.27;97115.00;5041065;28;20062;-67
2023/08/21 05:49:37;;;;;;;3.53;3.42;;;;;;;26.59;53.82;97164.91;5042448;28;20049;-67
2023/08/21 05:52:04;;;;;;;4.00;3.90;;;;;;;26.89;52.88;97166.81;5042211;28;20049;-67
2023/08/21 05:54:31;;;;;;;3.25;3.15;;;;;;;27.11;51.94;97164.56;5036408;28;20510;-66
2023/08/21 05:56:57;;;;;;;3.42;3.33;;;;;;;27.09;50.83;97129.34;5040193;28;20059;-66
2023/08/21 05:59:30;;;;;;;3.97;3.88;;;;;;;27.54;50.59;97161.31;5036472;28;20061;-66
2023/08/21 06:01:57;;;;;;;3.92;3.83;;;;;;;27.79;48.80;97166.59;5041805;28;20426;-66
2023/08/21 06:04:24;;;;;;;4.28;4.18;;;;;;;27.96;48.95;97159.25;5043512;28;20045;-67
2023/08/21 06:06:51;;;;;;;4.13;4.03;;;;;;;27.36;48.38;97030.47;5041704;28;20080;-65
2023/08/21 06:09:19;;;;;;;4.07;3.97;;;;;;;28.36;48.71;97163.78;5019907;28;20556;-67
2023/08/21 06:11:46;;;;;;;4.60;4.50;;;;;;;28.59;47.97;97145.91;5019121;28;20190;-63
2023/08/21 06:14:13;;;;;;;4.38;4.28;;;;;;;28.97;47.45;97157.28;5025243;28;20128;-62
2023/08/21 06:16:40;;;;;;;4.43;4.32;;;;;;;29.22;47.24;97162.47;5039163;28;20518;-65
2023/08/21 06:19:07;;;;;;;4.68;4.57;;;;;;;29.28;46.81;97149.06;5018791;28;20127;-61
2023/08/21 06:21:34;;;;;;;4.80;4.70;;;;;;;28.62;46.42;97047.97;5021830;28;20111;-65
2023/08/21 06:24:00;;;;;;;4.47;4.38;;;;;;;29.31;45.76;97125.25;5020455;28;20052;-63
2023/08/21 06:26:27;;;;;;;4.60;4.50;;;;;;;29.73;45.59;97151.44;5021736;28;20041;-60
2023/08/21 06:28:54;;;;;;;4.70;4.60;;;;;;;29.95;45.98;97163.22;5020047;28;20334;-65
2023/08/21 06:31:21;;;;;;;4.53;4.43;;;;;;;29.53;45.74;97077.06;5021596;28;20685;-60
2023/08/21 06:33:48;;;;;;;4.57;4.47;;;;;;;30.05;44.65;97115.28;5020375;28;20057;-63
2023/08/21 06:36:14;;;;;;;4.38;4.28;;;;;;;30.49;42.97;97162.44;5021799;28;20052;-62
2023/08/21 06:38:41;;;;;;;4.30;4.20;;;;;;;30.15;43.00;97163.25;5020887;28;20129;-63
2023/08/21 06:41:08;;;;;;;4.70;4.60;;;;;;;30.47;42.22;97164.22;5021585;28;20071;-60
2023/08/21 06:43:38;;;;;;;4.50;4.40;;;;;;;29.90;42.48;97091.69;5019029;28;20053;-66
2023/08/21 06:46:09;;;;;;;4.82;4.72;;;;;;;29.93;42.70;97102.91;5015009;28;20076;-64
2023/08/21 06:48:38;;;;;;;4.78;4.68;;;;;;;30.25;41.71;97136.13;5018853;28;20704;-63
2023/08/21 06:51:05;;;;;;;4.72;4.63;;;;;;;30.01;42.31;97120.41;5018253;28;20053;-63
2023/08/21 06:53:32;;;;;;;4.40;4.30;;;;;;;30.34;42.25;97161.72;5019794;28;20052;-58
2023/08/21 06:55:59;;;;;;;4.55;4.45;;;;;;;30.42;41.49;97160.03;5021170;28;20144;-58
2023/08/21 06:58:25;;;;;;;4.63;4.53;;;;;;;30.67;41.50;97167.88;5018063;28;20211;-62
2023/08/21 07:00:55;;;;;;;4.30;4.20;;;;;;;30.28;41.31;97118.00;5017295;28;20060;-63
2023/08/21 07:03:23;;;;;;;4.25;4.15;;;;;;;30.90;41.44;97175.47;5019269;28;20141;-64
2023/08/21 07:05:56;;;;;;;4.90;4.80;;;;;;;31.10;41.33;97165.28;5019097;28;20166;-60
2023/08/21 07:08:24;;;;;;;4.97;4.88;;;;;;;30.96;40.94;97169.81;5015265;28;20054;-60
2023/08/21 07:10:51;;;;;;;4.82;4.72;;;;;;;31.04;40.95;97173.03;5017198;28;20054;-66
2023/08/21 07:13:19;;;;;;;4.53;4.43;;;;;;;30.70;40.31;97075.34;5019497;28;20065;-62
2023/08/21 07:15:46;;;;;;;4.47;4.38;;;;;;;31.45;40.25;97158.13;5009927;28;20045;-61
2023/08/21 07:18:13;;;;;;;4.30;4.20;;;;;;;31.29;39.98;97097.78;5016023;28;20072;-59
2023/08/21 07:20:40;;;;;;;4.90;4.80;;;;;;;29.45;39.49;96827.53;5019568;28;20053;-66
2023/08/21 07:23:07;;;;;;;5.47;5.32;;;;;;;31.36;39.53;97140.34;5016643;28;20053;-66
2023/08/21 07:25:33;;;;;;;4.75;4.65;;;;;;;31.68;38.90;97165.63;5019770;28;20057;-66
2023/08/21 07:28:00;;;;;;;4.72;4.63;;;;;;;31.86;39.19;97158.75;5019871;28;20060;-61
2023/08/21 07:30:27;;;;;;;5.13;5.03;;;;;;;31.94;39.37;97165.59;5016649;28;20048;-62
2023/08/21 07:32:54;;;;;;;4.53;4.43;;;;;;;31.66;39.05;97101.53;5019444;28;20064;-64
2023/08/21 07:35:21;;;;;;;5.00;4.90;;;;;;;31.78;39.17;97106.03;5019201;28;20054;-67
2023/08/21 07:37:48;;;;;;;4.32;4.22;;;;;;;31.82;39.04;97090.16;5019017;28;20045;-66
2023/08/21 07:40:14;;;;;;;4.90;4.80;;;;;;;31.63;39.46;97163.47;5018383;28;20053;-61
2023/08/21 07:42:41;;;;;;;4.75;4.65;;;;;;;31.63;38.86;97152.03;5018443;28;20049;-67
2023/08/21 07:45:08;;;;;;;5.00;4.90;;;;;;;31.61;39.33;97165.28;5018137;28;20056;-62
2023/08/21 07:47:35;;;;;;;5.15;5.05;;;;;;;31.68;39.13;97168.47;5019102;28;20045;-60
2023/08/21 07:50:05;;;;;;;4.93;4.82;;;;;;;31.04;38.76;97047.09;5018810;28;20045;-62
2023/08/21 07:52:31;;;;;;;4.65;4.55;;;;;;;31.75;39.38;97170.91;5016065;28;20052;-62
2023/08/21 07:55:00;;;;;;;4.70;4.60;;;;;;;31.81;38.63;97148.00;5016059;28;20053;-60
2023/08/21 07:57:30;;;;;;;5.13;5.03;;;;;;;31.18;39.35;97060.47;5008816;28;20584;-65
2023/08/21 07:59:57;;;;;;;4.93;4.82;;;;;;;30.27;38.95;96979.19;5016465;28;20056;-63
2023/08/21 08:02:24;;;;;;;5.38;5.28;;;;;;;32.26;38.69;97164.25;5015926;28;20059;-61
2023/08/21 08:04:51;;;;;;;4.70;4.60;;;;;;;31.91;38.58;97106.44;5014824;28;20050;-64
2023/08/21 08:07:17;;;;;;;4.65;4.55;;;;;;;32.40;38.14;97157.59;5018464;28;20408;-60
2023/08/21 08:09:44;;;;;;;4.93;4.82;;;;;;;32.97;38.28;97161.00;5018336;28;20046;-61
2023/08/21 08:12:11;;;;;;;4.40;4.30;;;;;;;32.63;37.65;97124.81;5022144;28;20061;-64
2023/08/21 08:14:37;;;;;;;4.93;4.82;;;;;;;32.41;38.15;97124.72;5024413;28;20050;-61
2023/08/21 08:17:04;;;;;;;5.07;4.97;;;;;;;32.84;37.83;97139.78;5024928;28;20063;-65
2023/08/21 08:19:31;;;;;;;5.22;5.13;;;;;;;32.82;37.16;97143.16;5022498;28;20508;-69
2023/08/21 08:21:57;;;;;;;4.65;4.55;;;;;;;32.33;36.90;97049.84;5021593;28;20053;-65
2023/08/21 08:24:24;;;;;;;4.95;4.85;;;;;;;32.87;36.75;97133.00;5023451;28;20049;-62
2023/08/21 08:26:51;;;;;;;5.25;5.15;;;;;;;32.95;37.72;97146.38;5021366;28;20488;-63
2023/08/21 08:29:17;;;;;;;4.55;4.45;;;;;;;33.03;37.42;97130.22;5022418;28;20059;-63
2023/08/21 08:31:44;;;;;;;4.90;4.80;;;;;;;31.08;36.95;96819.44;5020078;28;20501;-58
2023/08/21 08:34:11;;;;;;;4.60;4.50;;;;;;;33.22;37.08;97148.53;5022483;28;20053;-58
2023/08/21 08:36:38;;;;;;;5.55;5.40;;;;;;;32.96;36.90;97129.94;5015039;28;20096;-63
2023/08/21 08:39:05;;;;;;;5.22;5.13;;;;;;;32.67;36.54;97059.38;5020422;28;20573;-67
2023/08/21 08:41:51;;;;;;;4.80;4.70;;;;;;;32.96;36.53;97119.22;5023085;28;20061;-61
2023/08/21 08:44:18;;;;;;;4.90;4.80;;;;;;;33.30;36.44;97149.59;5024107;28;20045;-61
2023/08/21 08:46:45;;;;;;;5.13;5.03;;;;;;;33.15;36.85;97143.28;5022912;28;20084;-67
2023/08/21 08:49:12;;;;;;;5.22;5.13;;;;;;;32.68;36.55;97046.59;5023262;28;20940;-65
2023/08/21 08:51:41;;;;;;;4.47;4.38;;;;;;;33.19;36.95;97117.19;5010981;28;20054;-64
2023/08/21 08:54:09;;;;;;;5.03;4.93;;;;;;;33.04;37.15;97126.03;5022942;28;20065;-66
2023/08/21 08:56:35;;;;;;;5.10;5.00;;;;;;;32.73;36.43;97017.13;5024159;28;20049;-69
2023/08/21 08:59:03;;;;;;;4.55;4.45;;;;;;;33.28;37.08;97117.72;5022988;28;20129;-59
2023/08/21 09:01:31;;;;;;;5.30;5.20;;;;;;;33.47;36.30;97113.06;5022499;28;20042;-59
2023/08/21 09:03:57;;;;;;;4.45;4.35;;;;;;;33.02;36.23;97053.97;5021694;28;20520;-63
2023/08/21 09:06:25;;;;;;;5.55;5.43;;;;;;;33.75;36.28;97133.97;5021722;28;20046;-65
2023/08/21 09:08:56;;;;;;;4.85;4.75;;;;;;;33.78;36.35;97130.03;5023853;28;20141;-63
2023/08/21 09:11:23;;;;;;;5.13;5.03;;;;;;;33.95;35.32;97117.78;5023896;28;20137;-63
2023/08/21 09:13:51;;;;;;;4.70;4.60;;;;;;;33.78;35.89;97131.34;5023644;28;20057;-62
2023/08/21 09:16:19;;;;;;;4.85;4.75;;;;;;;33.29;36.36;97119.28;5023758;28;20133;-63
2023/08/21 09:18:50;;;;;;;4.85;4.75;;;;;;;33.07;36.35;97090.53;5022390;28;20053;-62
2023/08/21 09:21:20;;;;;;;4.88;4.78;;;;;;;33.59;36.20;97114.63;5023922;28;20041;-61
2023/08/21 09:23:49;;;;;;;5.30;5.20;;;;;;;34.02;35.72;97134.50;5007458;28;20237;-63
2023/08/21 09:26:20;;;;;;;5.15;5.05;;;;;;;34.01;35.19;97125.09;5002202;28;20057;-63
2023/08/21 09:28:52;;;;;;;5.03;4.93;;;;;;;34.19;34.66;97121.66;5020818;28;20050;-61
2023/08/21 09:31:23;;;;;;;5.30;5.20;;;;;;;34.09;35.36;97122.44;5023111;28;20416;-62
2023/08/21 09:34:04;;;;;;;4.88;4.78;;;;;;;34.36;34.90;97130.25;5022434;28;20049;-61
2023/08/21 09:36:32;;;;;;;5.10;5.00;;;;;;;33.48;35.13;97097.38;5022922;28;20055;-62
2023/08/21 09:38:59;;;;;;;4.93;4.82;;;;;;;33.56;34.98;97068.94;5022896;28;20543;-65
2023/08/21 09:41:26;;;;;;;5.10;5.00;;;;;;;33.65;34.67;97069.41;5023618;28;20045;-64
2023/08/21 09:43:58;;;;;;;4.70;4.60;;;;;;;33.72;34.66;97109.16;5023453;28;20539;-64
2023/08/21 09:46:27;;;;;;;6.00;5.80;;;;;;;33.95;34.85;97129.28;5020194;28;20539;-66
2023/08/21 09:48:54;;;;;;;4.68;4.57;;;;;;;33.72;34.73;97123.53;5022444;28;20049;-62
2023/08/21 09:51:21;;;;;;;5.25;5.15;;;;;;;32.95;34.92;96991.34;5018823;28;20061;-66
2023/08/21 09:53:49;;;;;;;5.00;4.90;;;;;;;33.04;34.72;97034.16;5016936;28;20124;-70
2023/08/21 09:56:19;;;;;;;4.72;4.63;;;;;;;33.41;35.28;97069.19;5019978;28;20052;-64
2023/08/21 09:58:50;;;;;;;5.25;5.15;;;;;;;32.92;35.45;97043.28;5018680;28;20049;-64
2023/08/21 10:01:21;;;;;;;4.75;4.65;;;;;;;33.46;34.82;97068.41;5021726;28;20084;-67
2023/08/21 10:03:49;;;;;;;4.57;4.47;;;;;;;33.81;34.91;97108.09;5018948;28;20140;-63
2023/08/21 10:06:19;;;;;;;4.97;4.88;;;;;;;33.16;35.27;97080.91;5020053;28;20053;-63
2023/08/21 10:08:53;;;;;;;5.55;5.40;;;;;;;33.73;34.89;97072.56;5016379;28;20134;-64
2023/08/21 10:11:20;;;;;;;5.43;5.32;;;;;;;34.24;34.43;97105.69;5020448;28;20483;-60
2023/08/21 10:13:51;;;;;;;5.03;4.93;;;;;;;34.37;34.72;97103.81;5017625;28;20053;-65
2023/08/21 10:16:18;;;;;;;5.53;5.38;;;;;;;34.76;34.28;97100.81;5018904;28;20446;-60
2023/08/21 10:18:46;;;;;;;5.20;5.10;;;;;;;34.85;33.83;97080.34;5019976;28;20436;-66
2023/08/21 10:21:14;;;;;;;5.00;4.90;;;;;;;35.14;33.51;97108.50;5019841;28;20578;-65
2023/08/21 10:23:42;;;;;;;5.15;5.05;;;;;;;34.56;33.40;97092.50;5019223;28;20087;-61
2023/08/21 10:26:12;;;;;;;5.22;5.13;;;;;;;33.62;33.61;97024.50;5017403;28;20054;-69
2023/08/21 10:28:48;;;;;;;5.30;5.20;;;;;;;33.48;34.23;97054.28;5018120;28;20054;-62
2023/08/21 10:31:30;;;;;;;5.22;5.13;;;;;;;34.48;34.41;97098.03;5016055;28;20065;-66
2023/08/21 10:33:58;;;;;;;5.13;5.03;;;;;;;33.88;34.11;97066.53;5020589;28;20050;-65
2023/08/21 10:36:43;;;;;;;5.30;5.20;;;;;;;33.97;34.37;97092.97;5019420;28;20073;-61
2023/08/21 10:39:27;;;;;;;5.13;5.03;;;;;;;33.98;34.09;97007.44;5018897;28;20132;-61
2023/08/21 10:42:06;;;;;;;5.75;5.55;;;;;;;34.79;34.05;97085.34;5019403;28;20068;-60
2023/08/21 10:44:42;;;;;;;5.22;5.13;;;;;;;34.98;33.37;97083.44;5020011;28;20056;-66
2023/08/21 10:47:19;;;;;;;4.78;4.68;;;;;;;34.86;32.75;97076.13;5019144;28;20081;-70
2023/08/21 10:50:07;;;;;;;5.13;5.03;;;;;;;35.00;33.43;97086.56;5018400;28;20042;-63
2023/08/21 10:52:35;;;;;;;5.18;5.07;;;;;;;35.05;33.38;97082.84;5020881;28;20455;-66
2023/08/21 10:55:06;;;;;;;5.68;5.47;;;;;;;34.57;32.57;97036.53;5013226;28;20046;-65
2023/08/21 10:57:33;;;;;;;4.90;4.80;;;;;;;35.04;32.72;97087.06;5019283;28;20053;-66
2023/08/21 11:00:11;;;;;;;5.30;5.20;;;;;;;34.08;33.37;97023.13;5020416;28;20063;-66
2023/08/21 11:02:46;;;;;;;5.40;5.30;;;;;;;34.29;33.40;97067.50;5019844;28;20168;-65
2023/08/21 11:05:13;;;;;;;5.35;5.25;;;;;;;34.68;33.60;97077.53;5019526;28;20055;-66
2023/08/21 11:07:45;;;;;;;5.03;4.93;;;;;;;34.70;33.62;97028.06;5017179;28;20052;-67
2023/08/21 11:10:17;;;;;;;5.07;4.97;;;;;;;34.97;32.99;97078.97;5017964;28;20045;-69
2023/08/21 11:12:52;;;;;;;5.05;4.95;;;;;;;34.17;33.38;97011.31;5017497;28;20061;-67
2023/08/21 11:15:20;;;;;;;5.63;5.45;;;;;;;34.01;33.92;96986.28;5017980;28;20053;-60
2023/08/21 11:18:02;;;;;;;4.70;4.60;;;;;;;34.75;32.96;97070.44;5019982;28;20131;-73
2023/08/21 11:20:33;;;;;;;5.32;5.22;;;;;;;34.87;33.25;97069.84;5019480;28;20330;-73
2023/08/21 11:23:07;;;;;;;5.93;5.72;;;;;;;34.55;33.15;97042.81;5034031;28;20049;-64
2023/08/21 11:25:39;;;;;;;4.80;4.70;;;;;;;34.06;33.56;97011.34;5020102;28;20049;-72
2023/08/21 11:28:06;;;;;;;5.15;5.05;;;;;;;34.17;34.46;97077.47;5019653;28;20045;-65
2023/08/21 11:30:33;;;;;;;5.18;5.07;;;;;;;34.29;33.72;97027.22;5019622;28;20060;-60
2023/08/21 11:33:12;;;;;;;4.50;4.40;;;;;;;33.01;33.48;96908.88;5016568;28;20042;-69
2023/08/21 11:35:39;;;;;;;5.05;4.95;;;;;;;34.48;33.68;97045.47;5022392;28;20192;-72
2023/08/21 11:38:15;;;;;;;5.20;5.10;;;;;;;34.94;32.84;97036.84;5020262;28;20049;-75